| time (UTC) | temp F | wind direction | speed MPH | gust MPH | rain 1hr in | rain 24hr in | rain mn in | humidity % | barometer mb |
| 20260906211747 | 88 | 202 | 4.0 | 5.0 | 0.00 | 0.00 | 0.00 | 35 | 911.1 |
| 20260906211243 | 89 | 195 | 3.0 | 5.0 | 0.00 | 0.00 | 0.00 | 33 | 911.3 |
| 20260906210738 | 89 | 201 | 5.0 | 8.0 | 0.00 | 0.00 | 0.00 | 33 | 911.2 |
| 20260906210233 | 88 | 197 | 5.0 | 8.0 | 0.00 | 0.00 | 0.00 | 34 | 911.4 |
| 20260906205727 | 88 | 26 | 2.0 | 4.0 | 0.00 | 0.00 | 0.00 | 34 | 911.2 |
| 20260906205225 | 88 | 164 | 3.0 | 4.0 | 0.00 | 0.00 | 0.00 | 34 | 911.4 |
| 20260906204724 | 88 | 181 | 3.0 | 4.0 | 0.00 | 0.00 | 0.00 | 34 | 911.4 |
| 20260906204223 | 88 | 95 | 2.0 | 3.0 | 0.00 | 0.00 | 0.00 | 35 | 911.2 |
| 20260906203723 | 88 | 156 | 2.0 | 3.0 | 0.00 | 0.00 | 0.00 | 34 | 911.6 |
| 20260906203218 | 87 | 203 | 3.0 | 4.0 | 0.00 | 0.00 | 0.00 | 34 | 911.4 |
| 20260906202715 | 88 | 207 | 3.0 | 4.0 | 0.00 | 0.00 | 0.00 | 34 | 911.8 |
| 20260906202215 | 87 | 157 | 2.0 | 4.0 | 0.00 | 0.00 | 0.00 | 35 | 911.7 |
| 20260906201710 | 87 | 192 | 4.0 | 5.0 | 0.00 | 0.00 | 0.00 | 35 | 911.8 |
| 20260906201209 | 88 | 183 | 5.0 | 6.0 | 0.00 | 0.00 | 0.00 | 34 | 911.9 |
| 20260906200705 | 88 | 210 | 3.0 | 3.0 | 0.00 | 0.00 | 0.00 | 35 | 911.8 |
| 20260906200201 | 87 | 11 | 1.0 | 1.0 | 0.00 | 0.00 | 0.00 | 36 | 911.8 |
| 20260906195656 | 86 | 328 | 1.0 | 3.0 | 0.00 | 0.00 | 0.00 | 35 | 912.0 |
| 20260906195153 | 87 | 199 | 3.0 | 4.0 | 0.00 | 0.00 | 0.00 | 35 | 912.0 |
| 20260906194648 | 86 | 48 | 5.0 | 6.0 | 0.00 | 0.00 | 0.00 | 37 | 912.1 |
| 20260906194137 | 86 | 224 | 3.0 | 4.0 | 0.00 | 0.00 | 0.00 | 35 | 911.9 |
| 20260906193632 | 85 | 185 | 3.0 | 4.0 | 0.00 | 0.00 | 0.00 | 36 | 912.0 |
| 20260906193127 | 86 | 210 | 4.0 | 4.0 | 0.00 | 0.00 | 0.00 | 37 | 912.2 |
| 20260906192623 | 86 | 2 | 1.0 | 3.0 | 0.00 | 0.00 | 0.00 | 38 | 912.3 |
| 20260906192122 | 85 | 197 | 5.0 | 6.0 | 0.00 | 0.00 | 0.00 | 38 | 912.1 |
| 20260906191618 | 86 | 119 | 3.0 | 4.0 | 0.00 | 0.00 | 0.00 | 36 | 912.4 |
| 20260906191117 | 86 | 213 | 5.0 | 6.0 | 0.00 | 0.00 | 0.00 | 38 | 912.5 |
| 20260906190617 | 85 | 306 | 1.0 | 1.0 | 0.00 | 0.00 | 0.00 | 37 | 912.5 |
| 20260906190111 | 86 | 188 | 3.0 | 4.0 | 0.00 | 0.00 | 0.00 | 39 | 912.6 |
| 20260906185610 | 86 | 2 | 2.0 | 3.0 | 0.00 | 0.00 | 0.00 | 38 | 912.9 |
| 20260906185109 | 85 | 212 | 3.0 | 4.0 | 0.00 | 0.00 | 0.00 | 38 | 912.9 |
| 20260906184604 | 84 | 313 | 3.0 | 4.0 | 0.00 | 0.00 | 0.00 | 37 | 913.1 |
| 20260906184100 | 84 | 207 | 4.0 | 5.0 | 0.00 | 0.00 | 0.00 | 38 | 913.1 |
| 20260906183555 | 85 | 152 | 3.0 | 3.0 | 0.00 | 0.00 | 0.00 | 37 | 913.1 |
| 20260906183051 | 85 | 204 | 7.0 | 8.0 | 0.00 | 0.00 | 0.00 | 38 | 913.2 |
| 20260906182546 | 84 | 57 | 2.0 | 3.0 | 0.00 | 0.00 | 0.00 | 38 | 913.4 |
| 20260906182042 | 85 | 340 | 1.0 | 1.0 | 0.00 | 0.00 | 0.00 | 37 | 913.4 |
| 20260906181538 | 85 | 3 | 1.0 | 3.0 | 0.00 | 0.00 | 0.00 | 39 | 913.3 |
| 20260906181033 | 83 | 109 | 1.0 | 1.0 | 0.00 | 0.00 | 0.00 | 39 | 913.0 |
| 20260906180528 | 83 | 181 | 0.0 | 0.0 | 0.00 | 0.00 | 0.00 | 38 | 913.4 |
| 20260906180027 | 83 | 223 | 3.0 | 3.0 | 0.00 | 0.00 | 0.00 | 38 | 913.5 |
| 20260906175521 | 81 | 217 | 1.0 | 3.0 | 0.00 | 0.00 | 0.00 | 39 | 913.7 |
| 20260906175020 | 82 | 355 | 2.0 | 3.0 | 0.00 | 0.00 | 0.00 | 40 | 913.7 |
| 20260906174519 | 81 | 188 | 4.0 | 5.0 | 0.00 | 0.00 | 0.00 | 41 | 913.8 |
| 20260906174014 | 80 | 227 | 3.0 | 4.0 | 0.00 | 0.00 | 0.00 | 42 | 914.0 |
| 20260906173509 | 79 | 14 | 2.0 | 3.0 | 0.00 | 0.00 | 0.00 | 44 | 914.0 |
| 20260906173004 | 79 | 253 | 1.0 | 1.0 | 0.00 | 0.00 | 0.00 | 44 | 913.8 |
| 20260906172459 | 80 | 178 | 3.0 | 4.0 | 0.00 | 0.00 | 0.00 | 43 | 914.0 |
| 20260906171954 | 79 | 336 | 3.0 | 4.0 | 0.00 | 0.00 | 0.00 | 44 | 913.8 |
| 20260906171449 | 79 | 212 | 2.0 | 3.0 | 0.00 | 0.00 | 0.00 | 45 | 914.2 |
| 20260906170944 | 78 | 224 | 3.0 | 3.0 | 0.00 | 0.00 | 0.00 | 45 | 914.3 |
| 20260906170441 | 76 | 103 | 0.0 | 0.0 | 0.00 | 0.00 | 0.00 | 51 | 914.2 |
| 20260906165937 | 76 | 224 | 1.0 | 1.0 | 0.00 | 0.00 | 0.00 | 50 | 914.1 |
| 20260906165436 | 75 | 196 | 2.0 | 4.0 | 0.00 | 0.00 | 0.00 | 52 | 914.3 |
| 20260906164932 | 75 | 227 | 4.0 | 5.0 | 0.00 | 0.00 | 0.00 | 54 | 914.4 |
| 20260906164430 | 75 | 183 | 3.0 | 4.0 | 0.00 | 0.00 | 0.00 | 56 | 914.1 |
| 20260906163927 | 73 | 199 | 2.0 | 3.0 | 0.00 | 0.00 | 0.00 | 57 | 914.3 |
| 20260906163422 | 73 | 208 | 3.0 | 4.0 | 0.00 | 0.00 | 0.00 | 58 | 914.5 |
| 20260906162921 | 73 | 175 | 1.0 | 1.0 | 0.00 | 0.00 | 0.00 | 59 | 914.3 |
| 20260906162419 | 73 | 200 | 2.0 | 3.0 | 0.00 | 0.00 | 0.00 | 60 | 914.3 |
| 20260906161915 | 73 | 209 | 4.0 | 4.0 | 0.00 | 0.00 | 0.00 | 59 | 914.3 |
| 20260906161414 | 72 | 207 | 3.0 | 5.0 | 0.00 | 0.00 | 0.00 | 62 | 914.6 |
| 20260906160913 | 71 | 146 | 2.0 | 3.0 | 0.00 | 0.00 | 0.00 | 63 | 914.2 |
| 20260906160407 | 71 | 212 | 3.0 | 5.0 | 0.00 | 0.00 | 0.00 | 63 | 914.4 |
| 20260906155905 | 71 | 218 | 6.0 | 6.0 | 0.00 | 0.00 | 0.00 | 63 | 914.6 |
| 20260906155359 | 71 | 198 | 5.0 | 6.0 | 0.00 | 0.00 | 0.00 | 63 | 914.4 |
| 20260906154855 | 72 | 203 | 3.0 | 3.0 | 0.00 | 0.00 | 0.00 | 62 | 914.6 |
| 20260906154349 | 71 | 211 | 5.0 | 6.0 | 0.00 | 0.00 | 0.00 | 64 | 914.5 |
| 20260906153848 | 71 | 210 | 4.0 | 6.0 | 0.00 | 0.00 | 0.00 | 64 | 914.4 |
| 20260906153347 | 70 | 201 | 2.0 | 4.0 | 0.00 | 0.00 | 0.00 | 66 | 914.6 |
| 20260906152843 | 70 | 222 | 2.0 | 3.0 | 0.00 | 0.00 | 0.00 | 66 | 914.6 |
| 20260906152343 | 71 | 182 | 3.0 | 4.0 | 0.00 | 0.00 | 0.00 | 66 | 914.6 |
| 20260906151842 | 70 | 223 | 4.0 | 5.0 | 0.00 | 0.00 | 0.00 | 66 | 914.4 |
| 20260906151338 | 70 | 185 | 4.0 | 5.0 | 0.00 | 0.00 | 0.00 | 68 | 914.6 |
| 20260906150834 | 69 | 182 | 3.0 | 4.0 | 0.00 | 0.00 | 0.00 | 68 | 914.5 |
| 20260906150329 | 68 | 203 | 2.0 | 3.0 | 0.00 | 0.00 | 0.00 | 71 | 914.5 |
| 20260906145828 | 67 | 179 | 3.0 | 4.0 | 0.00 | 0.00 | 0.00 | 72 | 914.6 |
| 20260906145326 | 67 | 231 | 4.0 | 5.0 | 0.00 | 0.00 | 0.00 | 72 | 914.4 |
| 20260906144822 | 67 | 182 | 3.0 | 4.0 | 0.00 | 0.00 | 0.00 | 73 | 914.5 |
| 20260906144317 | 66 | 230 | 5.0 | 5.0 | 0.00 | 0.00 | 0.00 | 73 | 914.5 |
| 20260906143816 | 66 | 189 | 5.0 | 6.0 | 0.00 | 0.00 | 0.00 | 73 | 914.8 |
| 20260906143313 | 65 | 221 | 2.0 | 3.0 | 0.00 | 0.00 | 0.00 | 73 | 914.5 |
| 20260906142809 | 65 | 202 | 3.0 | 4.0 | 0.00 | 0.00 | 0.00 | 74 | 914.4 |
| 20260906142306 | 65 | 192 | 3.0 | 4.0 | 0.00 | 0.00 | 0.00 | 74 | 914.4 |
| 20260906141802 | 64 | 204 | 3.0 | 4.0 | 0.00 | 0.00 | 0.00 | 75 | 914.6 |
| 20260906141257 | 64 | 205 | 3.0 | 4.0 | 0.00 | 0.00 | 0.00 | 75 | 914.3 |
| 20260906140756 | 64 | 195 | 3.0 | 4.0 | 0.00 | 0.00 | 0.00 | 75 | 914.6 |
| 20260906140251 | 63 | 225 | 3.0 | 4.0 | 0.00 | 0.00 | 0.00 | 77 | 914.6 |
| 20260906135749 | 63 | 200 | 2.0 | 4.0 | 0.00 | 0.00 | 0.00 | 78 | 914.5 |
| 20260906135244 | 63 | 201 | 3.0 | 4.0 | 0.00 | 0.00 | 0.00 | 79 | 914.7 |
| 20260906134740 | 62 | 221 | 3.0 | 5.0 | 0.00 | 0.00 | 0.00 | 80 | 914.4 |
| 20260906134235 | 62 | 224 | 3.0 | 4.0 | 0.00 | 0.00 | 0.00 | 81 | 914.4 |
| 20260906133730 | 62 | 195 | 3.0 | 4.0 | 0.00 | 0.00 | 0.00 | 82 | 914.4 |
| 20260906133226 | 61 | 209 | 3.0 | 3.0 | 0.00 | 0.00 | 0.00 | 84 | 914.4 |
| 20260906132721 | 61 | 183 | 3.0 | 4.0 | 0.00 | 0.00 | 0.00 | 84 | 914.6 |
| 20260906132216 | 61 | 224 | 1.0 | 3.0 | 0.00 | 0.00 | 0.00 | 85 | 914.5 |
| 20260906131712 | 60 | 210 | 5.0 | 5.0 | 0.00 | 0.00 | 0.00 | 85 | 914.6 |
| 20260906131207 | 60 | 170 | 4.0 | 5.0 | 0.00 | 0.00 | 0.00 | 85 | 914.5 |
| 20260906130702 | 60 | 206 | 5.0 | 6.0 | 0.00 | 0.00 | 0.00 | 85 | 914.2 |
| 20260906130157 | 60 | 217 | 4.0 | 5.0 | 0.00 | 0.00 | 0.00 | 85 | 914.5 |
| 20260906125655 | 60 | 208 | 4.0 | 5.0 | 0.00 | 0.00 | 0.00 | 85 | 914.4 |
| 20260906125154 | 60 | 192 | 4.0 | 4.0 | 0.00 | 0.00 | 0.00 | 85 | 914.5 |
| 20260906124649 | 60 | 195 | 4.0 | 5.0 | 0.00 | 0.00 | 0.00 | 85 | 914.4 |
| 20260906124144 | 60 | 210 | 6.0 | 6.0 | 0.00 | 0.00 | 0.00 | 85 | 914.4 |
| 20260906123643 | 60 | 203 | 3.0 | 3.0 | 0.00 | 0.00 | 0.00 | 85 | 914.2 |
| 20260906123139 | 60 | 201 | 4.0 | 5.0 | 0.00 | 0.00 | 0.00 | 85 | 914.3 |
| 20260906122638 | 60 | 223 | 4.0 | 5.0 | 0.00 | 0.00 | 0.00 | 85 | 914.2 |
| 20260906122134 | 61 | 206 | 4.0 | 5.0 | 0.00 | 0.00 | 0.00 | 84 | 914.4 |
| 20260906121630 | 61 | 206 | 5.0 | 5.0 | 0.00 | 0.00 | 0.00 | 84 | 914.1 |
| 20260906121126 | 61 | 220 | 3.0 | 4.0 | 0.00 | 0.00 | 0.00 | 83 | 914.3 |
| 20260906120622 | 61 | 194 | 4.0 | 5.0 | 0.00 | 0.00 | 0.00 | 82 | 914.1 |
| 20260906120119 | 61 | 205 | 5.0 | 6.0 | 0.00 | 0.00 | 0.00 | 82 | 914.2 |
| 20260906115619 | 61 | 212 | 6.0 | 6.0 | 0.00 | 0.00 | 0.00 | 82 | 914.1 |
| 20260906115114 | 61 | 201 | 4.0 | 6.0 | 0.00 | 0.00 | 0.00 | 82 | 914.3 |
| 20260906114613 | 61 | 205 | 5.0 | 5.0 | 0.00 | 0.00 | 0.00 | 82 | 914.3 |
| 20260906114109 | 61 | 215 | 3.0 | 4.0 | 0.00 | 0.00 | 0.00 | 82 | 914.3 |
| 20260906113609 | 62 | 221 | 3.0 | 3.0 | 0.00 | 0.00 | 0.00 | 82 | 914.2 |
| 20260906113103 | 62 | 198 | 3.0 | 5.0 | 0.00 | 0.00 | 0.00 | 82 | 914.2 |
| 20260906112557 | 62 | 197 | 3.0 | 4.0 | 0.00 | 0.00 | 0.00 | 82 | 914.2 |
| 20260906112055 | 62 | 204 | 4.0 | 5.0 | 0.00 | 0.00 | 0.00 | 82 | 914.2 |
| 20260906111553 | 62 | 201 | 5.0 | 5.0 | 0.00 | 0.00 | 0.00 | 81 | 914.0 |
| 20260906111049 | 62 | 218 | 3.0 | 4.0 | 0.00 | 0.00 | 0.00 | 81 | 913.8 |
| 20260906110549 | 63 | 208 | 3.0 | 4.0 | 0.00 | 0.00 | 0.00 | 81 | 914.2 |
| 20260906110048 | 63 | 179 | 3.0 | 3.0 | 0.00 | 0.00 | 0.00 | 81 | 914.0 |
| 20260906105543 | 63 | 225 | 4.0 | 4.0 | 0.00 | 0.00 | 0.00 | 81 | 914.3 |
| 20260906105039 | 63 | 203 | 3.0 | 3.0 | 0.00 | 0.00 | 0.00 | 80 | 914.3 |
| 20260906104537 | 63 | 196 | 1.0 | 1.0 | 0.00 | 0.00 | 0.00 | 80 | 914.1 |
| 20260906104032 | 63 | 180 | 3.0 | 4.0 | 0.00 | 0.00 | 0.00 | 80 | 914.4 |
| 20260906103530 | 63 | 197 | 3.0 | 3.0 | 0.00 | 0.00 | 0.00 | 80 | 914.3 |
| 20260906103026 | 63 | 197 | 1.0 | 1.0 | 0.00 | 0.00 | 0.00 | 79 | 914.0 |
| 20260906102526 | 63 | 198 | 2.0 | 3.0 | 0.00 | 0.00 | 0.00 | 79 | 914.3 |
| 20260906102020 | 63 | 202 | 3.0 | 4.0 | 0.00 | 0.00 | 0.00 | 79 | 914.1 |
| 20260906101515 | 63 | 218 | 4.0 | 5.0 | 0.00 | 0.00 | 0.00 | 78 | 914.1 |
| 20260906101010 | 63 | 191 | 5.0 | 8.0 | 0.00 | 0.00 | 0.00 | 78 | 914.0 |
| 20260906100506 | 63 | 221 | 5.0 | 8.0 | 0.00 | 0.00 | 0.00 | 78 | 914.2 |
| 20260906100000 | 63 | 242 | 3.0 | 4.0 | 0.00 | 0.00 | 0.00 | 78 | 913.7 |
| 20260906095455 | 63 | 206 | 5.0 | 5.0 | 0.00 | 0.00 | 0.00 | 77 | 914.0 |
| 20260906094950 | 62 | 212 | 3.0 | 4.0 | 0.00 | 0.00 | 0.00 | 76 | 913.8 |
| 20260906094449 | 62 | 198 | 1.0 | 3.0 | 0.00 | 0.00 | 0.00 | 75 | 913.8 |
| 20260906093945 | 62 | 201 | 1.0 | 1.0 | 0.00 | 0.00 | 0.00 | 74 | 913.7 |
| 20260906093441 | 62 | 195 | 1.0 | 1.0 | 0.00 | 0.00 | 0.00 | 75 | 913.6 |
| 20260906092936 | 62 | 203 | 1.0 | 3.0 | 0.00 | 0.00 | 0.00 | 75 | 913.4 |
| 20260906092436 | 62 | 219 | 1.0 | 3.0 | 0.00 | 0.00 | 0.00 | 75 | 913.6 |
| 20260906091931 | 61 | 206 | 3.0 | 3.0 | 0.00 | 0.00 | 0.00 | 75 | 913.4 |
| 20260906091427 | 62 | 163 | 1.0 | 1.0 | 0.00 | 0.00 | 0.00 | 74 | 913.7 |
| 20260906090923 | 61 | 203 | 2.0 | 3.0 | 0.00 | 0.00 | 0.00 | 74 | 913.6 |
| 20260906090418 | 61 | 198 | 1.0 | 1.0 | 0.00 | 0.00 | 0.00 | 74 | 913.4 |
| 20260906085912 | 61 | 239 | 2.0 | 3.0 | 0.00 | 0.00 | 0.00 | 75 | 913.5 |
| 20260906085412 | 61 | 205 | 1.0 | 1.0 | 0.00 | 0.00 | 0.00 | 76 | 913.6 |
| 20260906084911 | 61 | 120 | 0.0 | 0.0 | 0.00 | 0.00 | 0.00 | 76 | 913.6 |
| 20260906084406 | 60 | 234 | 1.0 | 1.0 | 0.00 | 0.00 | 0.00 | 76 | 913.5 |
| 20260906083905 | 60 | 198 | 0.0 | 0.0 | 0.00 | 0.00 | 0.00 | 76 | 913.6 |
| 20260906083401 | 60 | 213 | 0.0 | 0.0 | 0.00 | 0.00 | 0.00 | 76 | 913.8 |
| 20260906082900 | 60 | 158 | 1.0 | 1.0 | 0.00 | 0.00 | 0.00 | 76 | 913.8 |
| 20260906082355 | 61 | 180 | 0.0 | 1.0 | 0.00 | 0.00 | 0.00 | 76 | 914.2 |
| 20260906081852 | 61 | 160 | 0.0 | 1.0 | 0.00 | 0.00 | 0.00 | 76 | 914.2 |
| 20260906081347 | 61 | 138 | 1.0 | 1.0 | 0.00 | 0.00 | 0.00 | 76 | 914.2 |
| 20260906080843 | 62 | 152 | 0.0 | 1.0 | 0.00 | 0.00 | 0.00 | 75 | 914.0 |
| 20260906080339 | 62 | 178 | 0.0 | 0.0 | 0.00 | 0.00 | 0.00 | 75 | 913.8 |
| 20260906075838 | 62 | 172 | 0.0 | 0.0 | 0.00 | 0.00 | 0.00 | 75 | 914.0 |
| 20260906075333 | 62 | 184 | 1.0 | 1.0 | 0.00 | 0.00 | 0.00 | 75 | 914.1 |
| 20260906074828 | 62 | 203 | 0.0 | 0.0 | 0.00 | 0.00 | 0.00 | 74 | 914.0 |
| 20260906074328 | 62 | 205 | 0.0 | 0.0 | 0.00 | 0.00 | 0.00 | 74 | 914.0 |
| 20260906073827 | 62 | 192 | 1.0 | 1.0 | 0.00 | 0.00 | 0.00 | 74 | 914.1 |
| 20260906073322 | 62 | 196 | 1.0 | 1.0 | 0.00 | 0.00 | 0.00 | 74 | 914.0 |
| 20260906072818 | 62 | 2 | 0.0 | 0.0 | 0.00 | 0.00 | 0.00 | 74 | 914.1 |
| 20260906072313 | 62 | 210 | 1.0 | 1.0 | 0.00 | 0.00 | 0.00 | 75 | 913.8 |
| 20260906071809 | 63 | 185 | 1.0 | 1.0 | 0.00 | 0.00 | 0.00 | 75 | 914.1 |
| 20260906071304 | 63 | 35 | 0.0 | 1.0 | 0.00 | 0.00 | 0.00 | 75 | 913.8 |
| 20260906070800 | 63 | 292 | 1.0 | 1.0 | 0.00 | 0.00 | 0.00 | 77 | 913.7 |
| 20260906070256 | 63 | 262 | 2.0 | 3.0 | 0.00 | 0.00 | 0.00 | 78 | 913.8 |
| 20260906065755 | 63 | 188 | 0.0 | 0.0 | 0.00 | 0.00 | 0.00 | 78 | 913.8 |
| 20260906065251 | 63 | 183 | 0.0 | 0.0 | 0.00 | 0.00 | 0.00 | 78 | 914.1 |
| 20260906064747 | 63 | 192 | 0.0 | 1.0 | 0.00 | 0.00 | 0.00 | 78 | 913.7 |
| 20260906064242 | 63 | 187 | 0.0 | 0.0 | 0.00 | 0.00 | 0.00 | 78 | 913.8 |
| 20260906063737 | 63 | 174 | 0.0 | 0.0 | 0.00 | 0.00 | 0.00 | 79 | 913.7 |
| 20260906063233 | 63 | 210 | 0.0 | 0.0 | 0.00 | 0.00 | 0.00 | 79 | 913.8 |
| 20260906062728 | 63 | 197 | 0.0 | 0.0 | 0.00 | 0.00 | 0.00 | 79 | 914.0 |
| 20260906062227 | 63 | 214 | 0.0 | 0.0 | 0.00 | 0.00 | 0.00 | 80 | 913.7 |
| 20260906061723 | 63 | 216 | 0.0 | 0.0 | 0.00 | 0.00 | 0.00 | 80 | 914.0 |
| 20260906061219 | 63 | 215 | 0.0 | 1.0 | 0.00 | 0.00 | 0.00 | 80 | 914.0 |
| 20260906060714 | 63 | 200 | 0.0 | 1.0 | 0.00 | 0.00 | 0.00 | 81 | 913.8 |
| 20260906060212 | 63 | 145 | 0.0 | 0.0 | 0.00 | 0.00 | 0.00 | 81 | 914.0 |
| 20260906055707 | 63 | 139 | 0.0 | 1.0 | 0.00 | 0.00 | 0.00 | 81 | 914.0 |
| 20260906055202 | 63 | 136 | 0.0 | 0.0 | 0.00 | 0.00 | 0.00 | 81 | 913.6 |
| 20260906054657 | 63 | 118 | 0.0 | 0.0 | 0.00 | 0.00 | 0.00 | 81 | 913.7 |
| 20260906054152 | 63 | 111 | 0.0 | 0.0 | 0.00 | 0.00 | 0.00 | 81 | 913.7 |
| 20260906053649 | 63 | 112 | 0.0 | 0.0 | 0.00 | 0.00 | 0.00 | 81 | 914.0 |
| 20260906053144 | 63 | 113 | 0.0 | 0.0 | 0.00 | 0.00 | 0.00 | 80 | 914.0 |
| 20260906052639 | 63 | 103 | 0.0 | 0.0 | 0.00 | 0.00 | 0.00 | 80 | 913.8 |
| 20260906052136 | 63 | 93 | 0.0 | 0.0 | 0.00 | 0.00 | 0.00 | 79 | 913.6 |
| 20260906051632 | 64 | 66 | 0.0 | 1.0 | 0.00 | 0.00 | 0.00 | 79 | 913.8 |
| 20260906051131 | 64 | 82 | 0.0 | 0.0 | 0.00 | 0.00 | 0.00 | 78 | 913.7 |
| 20260906050627 | 64 | 69 | 1.0 | 1.0 | 0.00 | 0.00 | 0.00 | 78 | 914.0 |
| 20260906050122 | 64 | 53 | 1.0 | 1.0 | 0.00 | 0.00 | 0.00 | 77 | 914.0 |
| 20260906045620 | 65 | 91 | 0.0 | 0.0 | 0.00 | 0.00 | 0.00 | 76 | 913.7 |
| 20260906045116 | 65 | 127 | 0.0 | 0.0 | 0.00 | 0.00 | 0.00 | 76 | 913.6 |
| 20260906044612 | 65 | 68 | 0.0 | 1.0 | 0.00 | 0.00 | 0.00 | 74 | 913.6 |
| 20260906044107 | 65 | 132 | 0.0 | 0.0 | 0.00 | 0.00 | 0.00 | 73 | 913.5 |
| 20260906043603 | 66 | 2 | 2.0 | 3.0 | 0.00 | 0.00 | 0.00 | 73 | 913.7 |
| 20260906043058 | 66 | 73 | 1.0 | 1.0 | 0.00 | 0.00 | 0.00 | 70 | 913.6 |
| 20260906042557 | 66 | 154 | 0.0 | 0.0 | 0.00 | 0.00 | 0.00 | 69 | 913.5 |
| 20260906042052 | 67 | 329 | 0.0 | 1.0 | 0.00 | 0.00 | 0.00 | 67 | 913.7 |
| 20260906041548 | 67 | 156 | 0.0 | 1.0 | 0.00 | 0.00 | 0.00 | 66 | 913.8 |
| 20260906041043 | 67 | 57 | 1.0 | 1.0 | 0.00 | 0.00 | 0.00 | 64 | 914.1 |
| 20260906040538 | 68 | 200 | 1.0 | 1.0 | 0.00 | 0.00 | 0.00 | 61 | 913.6 |
| 20260906040034 | 68 | 130 | 1.0 | 1.0 | 0.00 | 0.00 | 0.00 | 60 | 913.7 |
| 20260906035529 | 68 | 44 | 2.0 | 3.0 | 0.00 | 0.00 | 0.00 | 57 | 913.8 |
| 20260906035025 | 69 | 31 | 1.0 | 1.0 | 0.00 | 0.00 | 0.00 | 57 | 913.6 |
| 20260906034524 | 69 | 50 | 2.0 | 3.0 | 0.00 | 0.00 | 0.00 | 58 | 913.5 |
| 20260906034019 | 70 | 14 | 3.0 | 4.0 | 0.00 | 0.00 | 0.00 | 59 | 913.7 |
| 20260906033514 | 70 | 16 | 4.0 | 5.0 | 0.00 | 0.00 | 0.00 | 57 | 913.4 |
| 20260906033010 | 71 | 4 | 3.0 | 4.0 | 0.00 | 0.00 | 0.00 | 55 | 913.3 |
| 20260906032507 | 71 | 333 | 3.0 | 3.0 | 0.00 | 0.00 | 0.00 | 53 | 913.1 |
| 20260906032007 | 72 | 321 | 3.0 | 4.0 | 0.00 | 0.00 | 0.00 | 51 | 913.0 |
| 20260906031502 | 72 | 14 | 3.0 | 4.0 | 0.00 | 0.00 | 0.00 | 49 | 913.0 |
| 20260906030957 | 73 | 337 | 3.0 | 3.0 | 0.00 | 0.00 | 0.00 | 46 | 913.1 |
| 20260906030452 | 74 | 332 | 1.0 | 1.0 | 0.00 | 0.00 | 0.00 | 45 | 913.2 |
| 20260906025952 | 74 | 90 | 0.0 | 1.0 | 0.00 | 0.00 | 0.00 | 43 | 913.1 |
| 20260906025446 | 74 | 1 | 2.0 | 3.0 | 0.00 | 0.00 | 0.00 | 38 | 913.1 |
| 20260906024944 | 74 | 14 | 3.0 | 3.0 | 0.00 | 0.00 | 0.00 | 37 | 912.9 |
| 20260906024439 | 75 | 13 | 3.0 | 4.0 | 0.00 | 0.00 | 0.00 | 37 | 912.9 |
| 20260906023939 | 75 | 124 | 1.0 | 1.0 | 0.00 | 0.00 | 0.00 | 36 | 913.2 |
| 20260906023435 | 75 | 211 | 1.0 | 1.0 | 0.00 | 0.00 | 0.00 | 35 | 913.5 |
| 20260906022930 | 76 | 55 | 2.0 | 3.0 | 0.00 | 0.00 | 0.00 | 34 | 912.8 |
| 20260906022425 | 76 | 12 | 2.0 | 3.0 | 0.00 | 0.00 | 0.00 | 33 | 912.5 |
| 20260906021920 | 76 | 349 | 1.0 | 3.0 | 0.00 | 0.00 | 0.00 | 33 | 912.5 |
| 20260906021420 | 77 | 191 | 0.0 | 0.0 | 0.00 | 0.00 | 0.00 | 33 | 912.6 |
| 20260906020915 | 77 | 64 | 1.0 | 1.0 | 0.00 | 0.00 | 0.00 | 32 | 912.4 |
| 20260906020415 | 77 | 210 | 0.0 | 1.0 | 0.00 | 0.00 | 0.00 | 32 | 912.4 |
| 20260906015909 | 77 | 285 | 1.0 | 1.0 | 0.00 | 0.00 | 0.00 | 32 | 912.3 |
| 20260906015408 | 77 | 323 | 2.0 | 3.0 | 0.00 | 0.00 | 0.00 | 32 | 912.1 |
| 20260906014903 | 78 | 2 | 3.0 | 4.0 | 0.00 | 0.00 | 0.00 | 32 | 912.4 |
| 20260906014403 | 78 | 8 | 3.0 | 4.0 | 0.00 | 0.00 | 0.00 | 31 | 912.2 |
| 20260906013859 | 78 | 354 | 3.0 | 4.0 | 0.00 | 0.00 | 0.00 | 30 | 912.2 |
| 20260906013354 | 78 | 31 | 4.0 | 5.0 | 0.00 | 0.00 | 0.00 | 30 | 912.0 |
| 20260906012849 | 79 | 326 | 4.0 | 5.0 | 0.00 | 0.00 | 0.00 | 30 | 912.1 |
| 20260906012344 | 79 | 313 | 3.0 | 4.0 | 0.00 | 0.00 | 0.00 | 30 | 912.2 |
| 20260906011843 | 80 | 332 | 3.0 | 5.0 | 0.00 | 0.00 | 0.00 | 29 | 912.3 |
| 20260906011338 | 80 | 341 | 4.0 | 5.0 | 0.00 | 0.00 | 0.00 | 29 | 912.3 |
| 20260906010834 | 81 | 3 | 5.0 | 6.0 | 0.00 | 0.00 | 0.00 | 29 | 912.5 |
| 20260906010331 | 81 | 23 | 3.0 | 5.0 | 0.00 | 0.00 | 0.00 | 28 | 912.5 |
| 20260906005821 | 82 | 319 | 4.0 | 5.0 | 0.00 | 0.00 | 0.00 | 27 | 912.5 |
| 20260906005319 | 82 | 19 | 5.0 | 8.0 | 0.00 | 0.00 | 0.00 | 27 | 912.4 |
| 20260906004819 | 83 | 348 | 3.0 | 4.0 | 0.00 | 0.00 | 0.00 | 27 | 912.5 |
| 20260906004318 | 83 | 322 | 1.0 | 1.0 | 0.00 | 0.00 | 0.00 | 27 | 912.5 |
| 20260906003813 | 84 | 42 | 1.0 | 1.0 | 0.00 | 0.00 | 0.00 | 27 | 912.5 |
| 20260906003309 | 84 | 14 | 2.0 | 3.0 | 0.00 | 0.00 | 0.00 | 25 | 912.6 |
| 20260906002804 | 84 | 9 | 3.0 | 4.0 | 0.00 | 0.00 | 0.00 | 25 | 912.2 |
| 20260906002306 | 84 | 11 | 2.0 | 3.0 | 0.00 | 0.00 | 0.00 | 26 | 912.4 |
| 20260906001800 | 84 | 330 | 1.0 | 3.0 | 0.00 | 0.00 | 0.00 | 26 | 912.3 |
| 20260906001254 | 85 | 17 | 5.0 | 5.0 | 0.00 | 0.00 | 0.00 | 25 | 912.2 |
| 20260906000749 | 85 | 350 | 2.0 | 3.0 | 0.00 | 0.00 | 0.00 | 25 | 912.5 |
| 20260906000244 | 85 | 118 | 0.0 | 0.0 | 0.00 | 0.00 | 0.00 | 24 | 912.5 |
| 20260905235739 | 85 | 90 | 0.0 | 1.0 | 0.00 | 0.00 | 0.00 | 24 | 912.4 |
| 20260905235238 | 86 | 96 | 1.0 | 1.0 | 0.00 | 0.00 | 0.00 | 23 | 912.4 |
| 20260905234734 | 86 | 3 | 3.0 | 4.0 | 0.00 | 0.00 | 0.00 | 24 | 912.4 |
| 20260905234230 | 87 | 345 | 5.0 | 5.0 | 0.00 | 0.00 | 0.00 | 24 | 912.3 |
| 20260905233725 | 87 | 71 | 2.0 | 3.0 | 0.00 | 0.00 | 0.00 | 23 | 912.4 |
| 20260905233224 | 88 | 55 | 2.0 | 3.0 | 0.00 | 0.00 | 0.00 | 22 | 912.3 |
| 20260905232719 | 89 | 80 | 1.0 | 1.0 | 0.00 | 0.00 | 0.00 | 23 | 912.2 |
| 20260905232215 | 88 | 170 | 0.0 | 0.0 | 0.00 | 0.00 | 0.00 | 24 | 912.2 |
| 20260905231711 | 88 | 100 | 2.0 | 4.0 | 0.00 | 0.00 | 0.00 | 23 | 912.3 |
| 20260905231206 | 88 | 48 | 1.0 | 1.0 | 0.00 | 0.00 | 0.00 | 25 | 912.2 |
| 20260905230702 | 88 | 43 | 1.0 | 1.0 | 0.00 | 0.00 | 0.00 | 24 | 912.1 |
| 20260905230159 | 87 | 2 | 3.0 | 4.0 | 0.00 | 0.00 | 0.00 | 23 | 912.2 |
| 20260905225659 | 87 | 359 | 1.0 | 3.0 | 0.00 | 0.00 | 0.00 | 22 | 912.1 |
| 20260905225154 | 86 | 6 | 3.0 | 3.0 | 0.00 | 0.00 | 0.00 | 23 | 912.2 |
| 20260905224653 | 85 | 343 | 0.0 | 0.0 | 0.00 | 0.00 | 0.00 | 23 | 912.1 |
| 20260905224148 | 85 | 23 | 3.0 | 4.0 | 0.00 | 0.00 | 0.00 | 23 | 912.1 |
| 20260905223645 | 85 | 351 | 3.0 | 4.0 | 0.00 | 0.00 | 0.00 | 24 | 912.2 |
| 20260905223141 | 85 | 342 | 4.0 | 4.0 | 0.00 | 0.00 | 0.00 | 23 | 911.9 |
| 20260905222637 | 85 | 58 | 2.0 | 3.0 | 0.00 | 0.00 | 0.00 | 24 | 912.2 |
| 20260905222131 | 86 | 59 | 4.0 | 5.0 | 0.00 | 0.00 | 0.00 | 24 | 912.3 |
| 20260905221627 | 85 | 27 | 2.0 | 3.0 | 0.00 | 0.00 | 0.00 | 24 | 912.4 |
| 20260905221124 | 86 | 16 | 2.0 | 4.0 | 0.00 | 0.00 | 0.00 | 24 | 912.1 |
| 20260905220619 | 87 | 48 | 3.0 | 4.0 | 0.00 | 0.00 | 0.00 | 24 | 912.2 |
| 20260905220115 | 88 | 131 | 2.0 | 4.0 | 0.00 | 0.00 | 0.00 | 23 | 912.2 |
| 20260905215614 | 89 | 57 | 2.0 | 3.0 | 0.00 | 0.00 | 0.00 | 22 | 912.3 |
| 20260905215110 | 89 | 42 | 1.0 | 1.0 | 0.00 | 0.00 | 0.00 | 22 | 912.2 |
| 20260905214606 | 87 | 29 | 3.0 | 5.0 | 0.00 | 0.00 | 0.00 | 22 | 912.8 |
| 20260905214106 | 88 | 37 | 3.0 | 4.0 | 0.00 | 0.00 | 0.00 | 22 | 912.6 |
| 20260905213602 | 88 | 103 | 1.0 | 1.0 | 0.00 | 0.00 | 0.00 | 24 | 912.4 |
| 20260905213057 | 87 | 352 | 8.0 | 11.0 | 0.00 | 0.00 | 0.00 | 23 | 912.4 |
| 20260905212557 | 87 | 354 | 2.0 | 3.0 | 0.00 | 0.00 | 0.00 | 22 | 912.6 |
| 20260905212056 | 87 | 43 | 5.0 | 9.0 | 0.00 | 0.00 | 0.00 | 22 | 912.8 |